Dati Storici

Data ora Umidita' aria (%) Temperatura aria (°C) Rad globale (W/m²) Gonioanemometro (°) Tacoanemometro (m/s) Pioggia (mm)
13-06-2020 02:50 85.9 % 17.581 -81.143 -0.003 0 0
13-06-2020 02:40 85.6 % 17.703 -67.974 -0.003 0 0
13-06-2020 02:30 84.4 % 17.814 -61.215 -0.003 0 0
13-06-2020 02:20 83.8 % 17.965 -63.511 -0.005 0 0
13-06-2020 02:10 82.9 % 18.112 -73.227 0.649 0 0
13-06-2020 02:00 82.1 % 18.216 -77.833 -0.005 0 0
13-06-2020 01:50 82.1 % 18.25 -66.853 -0.006 0 0
13-06-2020 01:40 82.5 % 18.382 -63.994 -0.006 0 0
13-06-2020 01:30 82.8 % 18.254 -66.415 -0.005 0 0
13-06-2020 01:20 83.7 % 18.232 -61.289 -0.004 0 0
13-06-2020 01:10 83.8 % 18.329 -71.036 0.691 0 0
13-06-2020 01:00 82.9 % 18.548 -58.745 -0.006 0 0
13-06-2020 00:50 80.8 % 19.155 -55.602 -0.009 0 0
13-06-2020 00:40 80.3 % 19.372 -69.804 0.609 0 0
13-06-2020 00:30 80.1 % 19.468 -62.214 1.025 0 0
13-06-2020 00:20 79.4 % 19.652 -79.325 2.893 0 0
13-06-2020 00:10 79.5 % 19.891 -69.657 3.865 0 0
13-06-2020 00:00 83 % 20.094 -67.248 1.534 0 0
12-06-2020 23:50 84.3 % 20.097 -62.47 -0.006 0 0
12-06-2020 23:40 84 % 20.167 -65.816 1.304 0 0

I dati sono presentati in modo automatico a scopo informativo. In seguito a verifica i dati possono subire modifiche o essere invalidati e non riportati negli archivi definitivi.